Meath Environmental Platform

Observations for Trim Market St

Time AQI Temp °C Hum % Pres Pa CO μg/m³ H₂S μg/m³ NO μg/m³ NO₂ μg/m³ O₃ μg/m³ SO₂ μg/m³ PM1 μg/m³ PM2.5 μg/m³ PM10 μg/m³
Saturday 11 July 2026
23:03 1 21.3 70 54,328 0 0 0 4.99 9.44 0 4.28 6.96 11.3
23:01 1 21.3 70 54,420 0 0 0 7 15.46 0 4.28 6.48 9.42
23:00 1 21.3 70 54,444 0 0 0 9.7 11.54 0 3.56 6.48 9.42
22:58 1 21.3 70 54,515 0 0 0 5.12 11.9 0 3.56 6 8.79
22:57 1 21.4 70 54,516 0 0 0 3.19 7.5 0 3.56 4.54 7.53
22:56 1 21.4 69 54,547 0 0 0 11 18.75 0 5.7 6.98 10.68
22:53 1 21.4 69 54,765 0 0 0 3.61 5.07 0 5.7 7.47 10.68
22:51 1 21.5 69 54,832 0 0 0 8.6 13.11 0 5.7 7.48 11.32
22:48 1 21.6 69 54,953 0 0 0 5.79 15.4 0 4.99 6.51 11.33
22:45 1 21.6 69 55,177 0 0 0 8.11 9.69 0 3.56 5.06 10.07
22:44 1 21.7 69 55,245 0 0 0 8.1 15.72 0 4.99 6.04 10.07
22:35 1 21.8 68 55,681 0 0 0 9.74 15.52 0 4.28 6.08 8.81
22:34 1 21.8 68 55,703 0 0 0 4.65 13.44 0 4.28 6.57 10.72
22:33 1 21.9 68 55,713 0 0 0 7.43 13.17 0 4.99 8.04 12.64
22:32 1 21.8 68 55,730 0 0 0 10.36 16.67 0 4.28 6.58 9.45
22:31 1 21.9 68 55,762 0 0 0 6.84 9.8 0 4.28 6.58 11.37
22:30 1 21.9 68 55,792 0 0 0 11.25 14.77 0 4.99 6.58 10.73
22:29 1 22 68 55,831 0 0 0 11.33 20.56 0 2.14 5.12 7.53
22:28 1 21.9 68 55,860 0 0 0 8.37 18.02 0 4.28 6.1 11.38
22:27 1 22 68 55,897 0 0 0 9.46 15.84 0 4.28 6.6 9.45